Time;durP1;ratioP1;P1;durP2;ratioP2;P2;SDS_P1;SDS_P2;PMS_P1;PMS_P2;Temp;Humidity;BMP_temperature;BMP_pressure;BME280_temperature;BME280_humidity;BME280_pressure;Samples;Min_cycle;Max_cycle;Signal;HPM_P1;HPM_P2
2022/03/15 00:01:27;;;;;;;6.43;2.33;;;11.60;61.60;;;;;;10014892;28;20034;-66
2022/03/15 00:06:18;;;;;;;2.03;1.67;;;11.60;61.90;;;;;;10013122;28;20562;-65
2022/03/15 00:11:09;;;;;;;4.95;1.80;;;11.50;62.50;;;;;;10005279;28;20449;-65
2022/03/15 00:16:02;;;;;;;3.65;2.05;;;11.50;62.10;;;;;;9994328;28;20148;-66
2022/03/15 00:20:52;;;;;;;3.22;1.80;;;11.40;62.50;;;;;;9994729;28;20065;-65
2022/03/15 00:25:43;;;;;;;4.18;2.33;;;11.50;62.50;;;;;;10007781;28;20085;-64
2022/03/15 00:30:34;;;;;;;5.28;2.55;;;11.40;62.80;;;;;;9991424;28;20120;-64
2022/03/15 00:35:25;;;;;;;4.60;2.25;;;11.40;63.00;;;;;;10004434;28;20036;-64
2022/03/15 00:40:17;;;;;;;3.97;2.40;;;11.40;63.00;;;;;;10006642;28;20037;-65
2022/03/15 00:45:08;;;;;;;6.40;2.42;;;11.40;63.10;;;;;;10002842;28;20496;-63
2022/03/15 00:49:59;;;;;;;3.47;1.95;;;11.30;63.30;;;;;;9995917;28;20034;-64
2022/03/15 00:54:49;;;;;;;4.72;2.20;;;11.30;63.40;;;;;;9994028;28;20036;-63
2022/03/15 00:59:40;;;;;;;3.20;1.75;;;11.30;63.40;;;;;;9988861;28;20084;-64
2022/03/15 01:04:31;;;;;;;8.98;2.30;;;11.30;63.50;;;;;;10005473;28;20065;-65
2022/03/15 01:09:22;;;;;;;6.35;2.65;;;11.30;63.70;;;;;;10001155;28;20030;-64
2022/03/15 01:14:13;;;;;;;4.90;2.40;;;11.40;63.80;;;;;;10000606;28;20116;-64
2022/03/15 01:19:06;;;;;;;5.57;2.50;;;11.30;64.10;;;;;;10000395;28;20451;-65
2022/03/15 01:23:56;;;;;;;5.78;2.88;;;11.10;64.40;;;;;;9997459;28;20088;-63
2022/03/15 01:28:47;;;;;;;4.43;2.00;;;11.10;64.70;;;;;;10012080;28;20083;-65
2022/03/15 01:33:38;;;;;;;4.10;2.72;;;11.00;64.90;;;;;;9994662;28;20033;-63
2022/03/15 01:38:29;;;;;;;3.88;2.42;;;10.90;65.10;;;;;;9992424;28;20036;-64
2022/03/15 01:43:20;;;;;;;4.20;2.03;;;11.00;65.20;;;;;;9999879;28;20049;-64
2022/03/15 01:48:10;;;;;;;4.35;2.22;;;11.00;65.10;;;;;;9992553;28;20034;-65
2022/03/15 01:53:01;;;;;;;3.50;2.30;;;11.00;65.80;;;;;;10006097;28;20030;-66
2022/03/15 01:57:53;;;;;;;7.93;2.88;;;11.00;66.00;;;;;;10009541;28;20034;-64
2022/03/15 02:02:45;;;;;;;4.90;2.55;;;10.90;66.00;;;;;;10015651;28;20066;-65
2022/03/15 02:07:36;;;;;;;3.40;2.33;;;10.90;66.00;;;;;;10010031;28;20042;-65
2022/03/15 02:12:27;;;;;;;3.88;2.30;;;10.90;66.10;;;;;;10011470;28;20109;-64
2022/03/15 02:17:18;;;;;;;3.55;2.25;;;10.80;66.20;;;;;;10005400;28;20060;-65
2022/03/15 02:22:09;;;;;;;6.43;2.50;;;10.80;66.20;;;;;;10015991;28;20041;-64
2022/03/15 02:27:00;;;;;;;3.58;2.40;;;10.80;66.30;;;;;;10013846;28;20028;-64
2022/03/15 02:31:50;;;;;;;5.43;3.08;;;10.90;66.40;;;;;;10010523;28;20021;-64
2022/03/15 02:36:42;;;;;;;6.47;2.78;;;10.80;66.60;;;;;;10010141;28;20037;-63
2022/03/15 02:41:33;;;;;;;6.28;2.60;;;10.90;66.70;;;;;;10007108;28;20026;-65
2022/03/15 02:46:31;;;;;;;3.45;2.50;;;10.90;66.90;;;;;;10007920;28;20112;-65
2022/03/15 02:51:21;;;;;;;5.47;2.67;;;10.80;66.80;;;;;;10005976;28;20030;-64
2022/03/15 02:56:12;;;;;;;7.85;3.55;;;10.90;67.10;;;;;;10017365;28;20034;-65
2022/03/15 03:01:03;;;;;;;4.43;2.58;;;10.80;67.70;;;;;;10012456;28;20479;-64
2022/03/15 03:05:54;;;;;;;3.58;2.00;;;10.90;67.40;;;;;;10017624;28;20034;-65
2022/03/15 03:10:44;;;;;;;3.97;2.25;;;10.80;67.90;;;;;;10007028;28;20049;-64
2022/03/15 03:15:35;;;;;;;3.80;2.08;;;10.80;68.10;;;;;;10006691;28;20054;-64
2022/03/15 03:20:27;;;;;;;5.40;3.10;;;10.70;68.30;;;;;;10000610;28;20112;-64
2022/03/15 03:25:18;;;;;;;3.88;2.15;;;10.60;68.40;;;;;;10008656;28;20089;-66
2022/03/15 03:30:09;;;;;;;7.00;3.70;;;10.60;68.50;;;;;;10014388;28;20018;-65
2022/03/15 03:35:04;;;;;;;3.20;2.72;;;10.60;68.60;;;;;;10012333;28;20030;-63
2022/03/15 03:39:54;;;;;;;4.88;3.10;;;10.60;69.50;;;;;;9995155;28;20026;-65
2022/03/15 03:44:46;;;;;;;6.05;2.40;;;10.50;69.80;;;;;;10008341;28;20370;-63
2022/03/15 03:49:38;;;;;;;5.43;2.78;;;10.50;69.90;;;;;;10004603;28;20492;-64
2022/03/15 03:54:29;;;;;;;5.00;2.80;;;10.60;69.90;;;;;;9997054;28;20134;-64
2022/03/15 03:59:20;;;;;;;5.75;2.92;;;10.60;69.80;;;;;;10010664;28;20135;-65
2022/03/15 04:04:10;;;;;;;4.43;3.00;;;10.50;70.10;;;;;;10007913;28;20183;-64
2022/03/15 04:09:04;;;;;;;5.43;2.92;;;10.40;70.20;;;;;;9998747;28;20042;-65
2022/03/15 04:13:55;;;;;;;5.82;2.40;;;10.50;70.10;;;;;;9991608;28;20586;-63
2022/03/15 04:18:46;;;;;;;5.55;2.80;;;10.40;70.10;;;;;;10013539;28;20036;-64
2022/03/15 04:23:36;;;;;;;4.47;2.60;;;10.40;70.50;;;;;;10013705;28;20059;-64
2022/03/15 04:28:27;;;;;;;6.85;3.17;;;10.30;70.60;;;;;;10009328;28;20022;-65
2022/03/15 04:33:18;;;;;;;4.78;2.95;;;10.20;71.20;;;;;;10010303;28;20030;-63
2022/03/15 04:38:09;;;;;;;4.47;3.20;;;10.30;71.10;;;;;;10008639;28;20045;-64
2022/03/15 04:43:01;;;;;;;3.97;2.65;;;10.30;71.20;;;;;;10005749;28;20042;-64
2022/03/15 04:47:52;;;;;;;4.95;3.20;;;10.10;71.50;;;;;;10002222;28;20072;-64
2022/03/15 04:52:42;;;;;;;6.22;3.53;;;10.00;72.10;;;;;;10003738;28;20489;-66
2022/03/15 04:57:34;;;;;;;4.55;3.10;;;10.00;72.10;;;;;;10008504;28;20689;-63
2022/03/15 05:02:24;;;;;;;5.72;2.75;;;9.90;72.40;;;;;;10007958;28;20480;-64
2022/03/15 05:07:15;;;;;;;4.25;2.92;;;9.80;72.50;;;;;;10008403;28;20038;-64
2022/03/15 05:12:06;;;;;;;4.75;2.58;;;9.80;72.80;;;;;;9997934;28;20036;-65
2022/03/15 05:16:57;;;;;;;4.93;2.47;;;9.80;72.70;;;;;;10015228;28;20096;-66
2022/03/15 05:21:47;;;;;;;4.60;2.47;;;9.80;73.00;;;;;;10007258;28;20046;-66
2022/03/15 05:26:40;;;;;;;5.32;2.67;;;9.90;72.90;;;;;;10012487;28;20148;-67
2022/03/15 05:31:31;;;;;;;5.00;2.78;;;10.00;73.00;;;;;;10013845;28;20121;-64
2022/03/15 05:36:21;;;;;;;3.88;3.05;;;10.00;73.00;;;;;;10012741;28;20129;-65
2022/03/15 05:41:12;;;;;;;4.90;2.72;;;10.00;73.10;;;;;;10006976;28;20084;-63
2022/03/15 05:46:04;;;;;;;4.47;2.70;;;10.00;73.10;;;;;;10009188;28;20445;-68
2022/03/15 05:50:55;;;;;;;5.15;2.22;;;9.90;73.30;;;;;;10006368;28;20080;-68
2022/03/15 05:55:46;;;;;;;3.25;2.30;;;10.00;74.00;;;;;;10011966;28;20071;-67
2022/03/15 06:00:37;;;;;;;5.60;2.58;;;10.00;73.40;;;;;;10012741;28;20265;-69
2022/03/15 06:05:27;;;;;;;4.60;2.17;;;9.90;73.60;;;;;;9991822;28;20466;-64
2022/03/15 06:10:23;;;;;;;3.88;1.92;;;10.00;73.70;;;;;;10010350;28;20032;-64
2022/03/15 06:15:14;;;;;;;;;;;10.10;73.70;;;;;;10001297;28;20050;-64
2022/03/15 06:20:05;;;;;;;3.03;1.75;;;10.00;74.10;;;;;;9995186;28;19917;-65
2022/03/15 06:24:56;;;;;;;5.75;2.05;;;9.90;74.50;;;;;;9995448;28;20100;-65
2022/03/15 06:29:46;;;;;;;5.85;2.80;;;9.80;74.50;;;;;;10001022;28;20079;-64
2022/03/15 06:34:37;;;;;;;7.28;2.33;;;9.80;75.10;;;;;;10002409;28;20552;-66
2022/03/15 06:39:27;;;;;;;6.88;2.75;;;9.80;74.80;;;;;;10000131;28;20413;-69
2022/03/15 06:44:18;;;;;;;3.90;2.20;;;9.90;75.10;;;;;;9997963;28;20516;-68
2022/03/15 06:49:09;;;;;;;4.22;2.03;;;9.70;75.90;;;;;;9997845;28;20524;-64
2022/03/15 06:53:59;;;;;;;3.33;1.83;;;9.70;76.20;;;;;;10002943;28;20121;-66
2022/03/15 06:58:50;;;;;;;4.95;2.83;;;9.70;77.10;;;;;;10009990;28;20102;-63
2022/03/15 07:03:41;;;;;;;5.78;2.88;;;9.60;77.30;;;;;;10015223;28;20044;-64
2022/03/15 07:08:32;;;;;;;5.10;2.83;;;9.70;77.60;;;;;;10017760;28;20088;-64
2022/03/15 07:13:22;;;;;;;4.70;2.45;;;9.60;78.00;;;;;;10011566;28;20037;-63
2022/03/15 07:18:15;;;;;;;3.72;1.88;;;9.60;78.20;;;;;;10007752;28;20072;-64
2022/03/15 07:23:06;;;;;;;4.75;2.70;;;9.70;78.60;;;;;;10009985;28;20038;-65
2022/03/15 07:27:57;;;;;;;4.55;2.15;;;9.70;78.60;;;;;;10013573;28;20038;-64
2022/03/15 07:32:47;;;;;;;3.70;2.28;;;9.80;79.10;;;;;;10008830;28;20408;-66
2022/03/15 07:37:48;;;;;;;4.45;2.47;;;9.70;79.50;;;;;;10008998;28;20557;-61
2022/03/15 07:42:39;;;;;;;5.78;2.70;;;9.80;79.90;;;;;;10009219;28;20030;-62
2022/03/15 07:47:30;;;;;;;5.00;2.60;;;9.80;80.10;;;;;;10013008;28;20396;-61
2022/03/15 07:52:21;;;;;;;7.72;2.72;;;9.90;80.40;;;;;;10012667;28;20022;-63
2022/03/15 07:57:11;;;;;;;7.53;2.83;;;9.90;80.60;;;;;;10012837;28;20030;-63
2022/03/15 08:02:03;;;;;;;4.40;2.58;;;9.90;81.20;;;;;;10013134;28;20022;-63
2022/03/15 08:06:53;;;;;;;4.28;2.40;;;9.90;81.20;;;;;;10011209;28;20208;-62
2022/03/15 08:11:45;;;;;;;5.57;2.65;;;9.80;81.50;;;;;;10010389;28;20236;-62
2022/03/15 08:16:36;;;;;;;4.55;2.25;;;9.90;81.50;;;;;;10025206;28;20045;-61
2022/03/15 08:21:27;;;;;;;4.93;2.38;;;10.00;81.60;;;;;;10020842;28;20404;-59
2022/03/15 08:26:19;;;;;;;6.45;2.42;;;10.20;81.70;;;;;;10003486;28;20038;-62
2022/03/15 08:31:10;;;;;;;7.18;2.97;;;10.20;82.00;;;;;;10012786;28;20022;-60
2022/03/15 08:36:00;;;;;;;5.28;2.58;;;10.40;82.10;;;;;;10009001;28;20120;-64
2022/03/15 08:40:51;;;;;;;4.30;2.40;;;10.30;82.60;;;;;;9992818;28;20491;-65
2022/03/15 08:45:42;;;;;;;5.22;2.85;;;10.40;82.70;;;;;;10012981;28;20153;-64
2022/03/15 08:50:33;;;;;;;5.75;2.30;;;10.20;82.90;;;;;;10007622;28;20072;-61
2022/03/15 08:55:27;;;;;;;5.43;2.30;;;10.30;83.10;;;;;;10027037;28;20524;-63
2022/03/15 09:00:18;;;;;;;5.18;2.35;;;10.40;83.30;;;;;;10029156;28;20018;-62
2022/03/15 09:05:11;;;;;;;5.55;3.00;;;10.40;83.50;;;;;;10010617;28;20415;-65
2022/03/15 09:10:03;;;;;;;9.10;3.30;;;10.30;83.90;;;;;;10011028;28;20054;-59
2022/03/15 09:14:54;;;;;;;7.70;2.80;;;10.20;84.80;;;;;;10023464;28;20045;-60
2022/03/15 09:19:45;;;;;;;4.80;2.95;;;10.50;83.90;;;;;;10026785;28;20497;-61
2022/03/15 09:24:36;;;;;;;3.88;2.75;;;10.60;83.90;;;;;;10002422;28;20041;-61
2022/03/15 09:29:27;;;;;;;4.70;3.22;;;10.60;83.70;;;;;;10011778;28;20030;-64
2022/03/15 09:34:18;;;;;;;6.13;3.17;;;10.50;84.20;;;;;;10024423;28;20041;-65
2022/03/15 09:39:09;;;;;;;5.50;2.72;;;10.50;84.30;;;;;;10004209;28;20480;-60
2022/03/15 09:44:00;;;;;;;6.10;3.20;;;10.50;84.40;;;;;;10013670;28;20038;-63
2022/03/15 09:48:54;;;;;;;4.22;2.60;;;10.60;84.40;;;;;;10008915;28;20036;-60
2022/03/15 09:53:47;;;;;;;4.28;2.78;;;10.70;84.50;;;;;;10028639;28;20030;-63
2022/03/15 09:58:37;;;;;;;4.40;2.42;;;10.70;84.60;;;;;;10034704;28;20209;-62
2022/03/15 10:03:29;;;;;;;5.20;3.00;;;10.80;84.50;;;;;;10017641;28;20297;-64
2022/03/15 10:08:20;;;;;;;7.53;3.53;;;10.80;84.90;;;;;;10019485;28;20361;-59
2022/03/15 10:13:11;;;;;;;5.32;3.22;;;10.80;84.90;;;;;;10025079;28;20033;-60
2022/03/15 10:18:04;;;;;;;6.28;3.13;;;10.90;84.70;;;;;;10029465;28;20037;-59
2022/03/15 10:23:00;;;;;;;6.40;2.35;;;10.90;85.00;;;;;;10039637;28;20536;-60
2022/03/15 10:27:53;;;;;;;6.25;3.08;;;10.90;85.00;;;;;;10032684;28;20042;-62
2022/03/15 10:32:45;;;;;;;7.22;3.10;;;11.00;85.30;;;;;;10032277;28;20537;-64
2022/03/15 10:37:41;;;;;;;4.70;2.83;;;11.10;85.20;;;;;;10032919;28;20028;-60
2022/03/15 10:42:41;;;;;;;5.90;2.80;;;11.10;85.60;;;;;;10030706;28;20416;-60
2022/03/15 10:47:32;;;;;;;7.90;3.35;;;11.30;85.20;;;;;;10016778;28;20037;-60
2022/03/15 10:52:40;;;;;;;7.43;2.65;;;11.60;85.00;;;;;;10025241;28;20049;-63
2022/03/15 10:57:45;;;;;;;6.10;3.47;;;11.70;85.50;;;;;;10037185;28;20021;-62
2022/03/15 11:02:36;;;;;;;9.05;3.42;;;11.80;86.30;;;;;;10022327;28;20532;-66
2022/03/15 11:07:37;;;;;;;11.27;4.95;;;11.80;85.80;;;;;;10025585;28;20025;-64
2022/03/15 11:12:29;;;;;;;5.32;3.22;;;11.80;86.00;;;;;;10032428;28;20496;-63
2022/03/15 11:17:25;;;;;;;8.48;4.10;;;11.80;85.90;;;;;;10038362;28;20526;-63
2022/03/15 11:22:17;;;;;;;;;;;11.90;85.90;;;;;;10035787;28;20037;-63
2022/03/15 11:27:12;;;;;;;12.65;4.30;;;12.00;86.40;;;;;;10033718;28;19913;-64
2022/03/15 11:32:03;;;;;;;5.20;3.47;;;12.10;85.90;;;;;;10023091;28;20021;-65
2022/03/15 11:36:56;;;;;;;5.88;3.17;;;11.80;86.40;;;;;;10020883;28;20079;-64
2022/03/15 11:41:47;;;;;;;7.88;3.47;;;11.80;86.60;;;;;;10013159;28;20029;-63
2022/03/15 11:46:47;;;;;;;6.32;3.63;;;11.70;86.70;;;;;;9998599;28;20238;-63
2022/03/15 11:52:01;;;;;;;4.88;3.33;;;11.60;86.70;;;;;;10018664;28;20484;-63
2022/03/15 11:57:21;;;;;;;5.57;3.08;;;11.70;86.70;;;;;;10006873;28;20135;-61
2022/03/15 12:02:12;;;;;;;6.60;3.72;;;11.60;87.30;;;;;;10009153;28;20045;-62
2022/03/15 12:07:03;;;;;;;4.93;3.97;;;11.80;86.90;;;;;;10021925;28;20416;-62
2022/03/15 12:12:05;;;;;;;6.20;3.95;;;12.00;86.60;;;;;;10016717;28;20057;-62
2022/03/15 12:16:57;;;;;;;7.13;4.10;;;12.00;86.70;;;;;;9997980;28;20142;-62
2022/03/15 12:21:59;;;;;;;6.28;3.60;;;12.00;86.60;;;;;;10010616;28;20030;-64
2022/03/15 12:27:17;;;;;;;5.57;3.58;;;11.80;86.90;;;;;;10012510;28;20038;-64
2022/03/15 12:32:14;;;;;;;9.68;3.72;;;11.80;86.80;;;;;;10009176;28;20509;-63
2022/03/15 12:37:07;;;;;;;8.85;3.55;;;11.90;86.80;;;;;;10007541;28;20079;-66
2022/03/15 12:42:05;;;;;;;8.00;3.97;;;11.80;86.80;;;;;;10006614;28;20041;-64
2022/03/15 12:46:56;;;;;;;5.60;3.08;;;11.70;86.90;;;;;;10006915;28;20184;-64
2022/03/15 12:51:47;;;;;;;6.38;3.53;;;11.80;86.60;;;;;;10010797;28;20161;-63
2022/03/15 12:56:46;;;;;;;6.72;3.17;;;11.90;86.50;;;;;;10011916;28;20445;-63
2022/03/15 13:01:37;;;;;;;4.18;3.17;;;12.20;86.20;;;;;;10008245;28;20315;-63
2022/03/15 13:06:29;;;;;;;5.13;2.90;;;12.10;86.60;;;;;;10015107;28;20131;-62
2022/03/15 13:11:20;;;;;;;5.47;2.65;;;12.30;86.20;;;;;;10008563;28;20404;-63
2022/03/15 13:16:10;;;;;;;4.28;2.95;;;12.60;85.80;;;;;;10023743;28;20042;-64
2022/03/15 13:21:06;;;;;;;4.25;2.45;;;12.90;85.60;;;;;;10031528;28;20025;-64
2022/03/15 13:26:07;;;;;;;6.45;3.03;;;13.10;85.70;;;;;;10021103;28;20818;-62
2022/03/15 13:31:05;;;;;;;6.28;2.80;;;13.30;85.60;;;;;;10024849;28;20500;-62
2022/03/15 13:36:24;;;;;;;7.43;3.15;;;13.40;85.70;;;;;;10003610;28;20061;-67
2022/03/15 13:41:22;;;;;;;4.20;2.83;;;13.50;86.10;;;;;;9989796;28;20038;-65
2022/03/15 13:46:15;;;;;;;6.63;2.75;;;13.90;85.60;;;;;;9998939;28;20042;-60
2022/03/15 13:51:10;;;;;;;7.38;3.17;;;14.00;85.40;;;;;;10027668;28;20013;-66
2022/03/15 13:56:12;;;;;;;5.40;3.30;;;14.30;84.90;;;;;;10038560;28;20021;-68
2022/03/15 14:01:05;;;;;;;4.95;2.80;;;14.40;84.90;;;;;;10022401;28;20045;-66
2022/03/15 14:06:09;;;;;;;4.00;2.22;;;14.50;84.70;;;;;;10019654;28;20048;-64
2022/03/15 14:11:12;;;;;;;2.55;1.80;;;14.30;85.10;;;;;;10029745;28;20061;-64
2022/03/15 14:16:11;;;;;;;4.07;1.85;;;14.30;85.00;;;;;;10035564;28;20559;-64
2022/03/15 14:21:02;;;;;;;4.50;2.45;;;14.20;84.70;;;;;;10037327;28;20031;-64
2022/03/15 14:26:00;;;;;;;2.97;1.80;;;14.00;85.00;;;;;;10038550;28;20045;-63
2022/03/15 14:31:01;;;;;;;5.25;1.85;;;13.60;85.30;;;;;;10012089;28;20088;-63
2022/03/15 14:35:59;;;;;;;4.22;2.83;;;13.60;85.50;;;;;;10013706;28;20034;-62
2022/03/15 14:40:56;;;;;;;4.50;2.92;;;13.60;85.20;;;;;;10034094;28;20018;-63
2022/03/15 14:45:48;;;;;;;4.90;3.28;;;13.70;84.70;;;;;;10031179;28;20053;-63
2022/03/15 14:50:39;;;;;;;5.63;2.40;;;13.60;84.70;;;;;;10036742;28;20498;-65
2022/03/15 14:55:30;;;;;;;3.92;2.08;;;13.40;85.20;;;;;;10037408;28;20124;-63
2022/03/15 15:00:23;;;;;;;3.83;2.30;;;13.40;84.70;;;;;;10025475;28;20035;-63
2022/03/15 15:05:17;;;;;;;3.90;2.03;;;13.50;84.60;;;;;;10022009;28;20065;-63
2022/03/15 15:10:09;;;;;;;5.05;2.45;;;13.60;84.20;;;;;;10024269;28;20387;-66
2022/03/15 15:15:02;;;;;;;4.68;2.72;;;13.60;84.20;;;;;;10025730;28;20090;-65
2022/03/15 15:19:53;;;;;;;2.95;1.75;;;13.70;84.00;;;;;;10035358;28;20064;-64
2022/03/15 15:24:45;;;;;;;4.97;2.45;;;13.60;84.20;;;;;;10034101;28;20061;-63
2022/03/15 15:29:41;;;;;;;4.13;2.60;;;13.50;84.40;;;;;;10032144;28;20596;-64
2022/03/15 15:34:33;;;;;;;3.47;2.50;;;13.40;84.30;;;;;;10017790;28;20078;-65
2022/03/15 15:39:26;;;;;;;3.67;2.08;;;13.30;84.30;;;;;;10022622;28;20029;-63
2022/03/15 15:44:16;;;;;;;3.20;2.28;;;13.10;84.70;;;;;;10025306;28;20045;-61
2022/03/15 15:49:07;;;;;;;4.30;1.88;;;13.00;84.70;;;;;;10032254;28;20029;-64
2022/03/15 15:53:58;;;;;;;3.53;2.08;;;13.00;84.90;;;;;;10032247;28;20040;-66
2022/03/15 15:58:49;;;;;;;9.48;2.45;;;12.90;84.90;;;;;;10015906;28;20096;-63
2022/03/15 16:03:39;;;;;;;7.57;2.88;;;12.90;85.00;;;;;;10016070;28;20038;-65
2022/03/15 16:08:35;;;;;;;3.78;2.40;;;12.80;85.20;;;;;;10024663;28;20436;-63
2022/03/15 16:13:26;;;;;;;4.82;2.70;;;12.70;85.50;;;;;;10022801;28;20033;-63
2022/03/15 16:18:17;;;;;;;5.55;2.70;;;12.80;85.40;;;;;;10030011;28;20057;-61
2022/03/15 16:23:09;;;;;;;6.80;2.90;;;12.80;85.30;;;;;;10029481;28;20048;-62
2022/03/15 16:28:00;;;;;;;5.80;3.22;;;12.90;85.40;;;;;;10019694;28;20034;-61
2022/03/15 16:32:51;;;;;;;5.43;3.33;;;12.80;85.60;;;;;;10013847;28;20018;-63
2022/03/15 16:37:42;;;;;;;6.10;3.38;;;12.70;86.10;;;;;;10019732;28;20493;-63
2022/03/15 16:42:34;;;;;;;4.22;2.80;;;12.70;86.10;;;;;;10021268;28;20022;-62
2022/03/15 16:47:25;;;;;;;4.22;2.42;;;12.60;86.40;;;;;;10024715;28;20100;-63
2022/03/15 16:52:16;;;;;;;5.63;2.72;;;12.60;86.70;;;;;;10028308;28;20104;-66
2022/03/15 16:57:07;;;;;;;6.85;4.63;;;12.60;86.90;;;;;;10021770;28;20063;-65
2022/03/15 17:02:00;;;;;;;5.72;2.67;;;12.50;86.90;;;;;;10036505;28;20567;-65
2022/03/15 17:06:52;;;;;;;6.10;2.95;;;12.50;87.20;;;;;;10022687;28;20049;-65
2022/03/15 17:11:43;;;;;;;5.47;3.25;;;12.40;87.60;;;;;;10022568;28;20396;-64
2022/03/15 17:16:36;;;;;;;3.28;2.97;;;12.30;87.90;;;;;;10031238;28;20049;-63
2022/03/15 17:21:29;;;;;;;7.20;3.63;;;12.30;88.20;;;;;;10015345;28;20507;-63
2022/03/15 17:26:23;;;;;;;5.10;3.20;;;12.30;88.00;;;;;;10034048;28;20045;-64
2022/03/15 17:31:16;;;;;;;6.10;3.22;;;12.30;88.00;;;;;;10023378;28;20561;-63
2022/03/15 17:36:09;;;;;;;7.65;2.92;;;12.30;87.90;;;;;;10022951;28;20179;-65
2022/03/15 17:40:59;;;;;;;5.32;3.40;;;12.30;88.30;;;;;;10013037;28;20038;-65
2022/03/15 17:45:51;;;;;;;5.60;2.83;;;12.30;88.20;;;;;;10028419;28;20512;-65
2022/03/15 17:50:42;;;;;;;5.88;3.30;;;12.30;88.30;;;;;;10026949;28;20033;-62
2022/03/15 17:55:34;;;;;;;4.97;3.10;;;12.20;88.40;;;;;;10030539;28;20033;-62
2022/03/15 18:00:25;;;;;;;6.03;3.63;;;12.20;88.60;;;;;;10022860;28;20393;-63
2022/03/15 18:05:16;;;;;;;4.30;2.90;;;12.20;88.60;;;;;;10025497;28;20052;-63
2022/03/15 18:15:18;;;;;;;6.95;3.33;;;12.20;88.70;;;;;;10018616;28;20068;-60
2022/03/15 18:20:12;;;;;;;5.55;3.00;;;12.30;88.80;;;;;;10029738;28;20332;-63
2022/03/15 18:25:03;;;;;;;7.57;3.83;;;12.20;88.80;;;;;;9992591;28;20042;-65
2022/03/15 18:29:54;;;;;;;4.53;3.28;;;12.30;88.80;;;;;;10008446;28;20025;-63
2022/03/15 18:34:44;;;;;;;6.40;3.63;;;12.30;88.90;;;;;;10003741;28;20038;-63
2022/03/15 18:39:35;;;;;;;9.77;4.70;;;12.30;88.90;;;;;;10007100;28;20018;-63
2022/03/15 18:44:28;;;;;;;7.97;3.33;;;12.30;89.10;;;;;;10006262;28;20610;-63
2022/03/15 18:49:19;;;;;;;6.32;3.63;;;12.30;89.10;;;;;;9999095;28;20021;-62
2022/03/15 18:54:12;;;;;;;5.50;4.30;;;12.20;89.80;;;;;;10019990;28;20034;-62
2022/03/15 18:59:03;;;;;;;7.07;4.07;;;12.30;89.20;;;;;;10043290;28;20010;-65
2022/03/15 19:03:55;;;;;;;8.07;4.25;;;12.20;89.40;;;;;;10026898;28;20034;-65
2022/03/15 19:08:49;;;;;;;10.63;4.55;;;12.30;89.20;;;;;;10019399;28;20370;-63
2022/03/15 19:13:44;;;;;;;8.63;4.22;;;12.30;89.20;;;;;;10010573;28;20424;-65
2022/03/15 19:18:35;;;;;;;7.45;4.47;;;12.30;89.40;;;;;;10018134;28;20120;-65
2022/03/15 19:23:29;;;;;;;8.73;4.40;;;12.30;89.50;;;;;;10007150;28;20065;-64
2022/03/15 19:28:20;;;;;;;10.02;5.85;;;12.30;89.40;;;;;;10017140;28;20146;-65
2022/03/15 19:33:15;;;;;;;5.22;3.92;;;12.30;89.80;;;;;;10016726;28;20145;-65
2022/03/15 19:38:09;;;;;;;7.50;3.85;;;12.20;90.00;;;;;;10018338;28;20025;-65
2022/03/15 19:42:59;;;;;;;8.85;4.38;;;12.30;89.70;;;;;;10012677;28;20041;-67
2022/03/15 19:47:50;;;;;;;11.48;4.45;;;12.30;89.80;;;;;;10000372;28;20030;-68
2022/03/15 19:52:42;;;;;;;7.93;3.95;;;12.20;90.00;;;;;;10013999;28;20038;-69
2022/03/15 19:57:33;;;;;;;11.10;4.15;;;12.10;90.30;;;;;;10017533;28;20052;-68
2022/03/15 20:02:26;;;;;;;8.70;5.05;;;12.00;90.60;;;;;;10017012;28;20033;-69
2022/03/15 20:07:21;;;;;;;6.00;3.83;;;12.00;90.70;;;;;;10012920;28;20046;-66
2022/03/15 20:12:18;;;;;;;6.65;4.40;;;11.80;91.00;;;;;;10016517;28;20676;-66
2022/03/15 20:17:08;;;;;;;10.02;4.07;;;11.80;91.10;;;;;;10013364;28;20558;-67
2022/03/15 20:22:01;;;;;;;13.07;4.50;;;11.70;91.50;;;;;;10015320;28;20040;-68
2022/03/15 20:26:51;;;;;;;7.68;4.68;;;11.50;91.90;;;;;;10010412;28;20459;-64
2022/03/15 20:31:45;;;;;;;7.75;4.35;;;11.40;91.80;;;;;;10003472;28;20018;-68
2022/03/15 20:36:38;;;;;;;8.23;4.72;;;11.40;91.80;;;;;;10009156;28;20041;-70
2022/03/15 20:41:34;;;;;;;157.93;76.05;;;11.50;91.70;;;;;;9989334;28;20022;-66
2022/03/15 20:46:25;;;;;;;38.05;20.70;;;11.80;91.30;;;;;;9992168;28;20563;-68
2022/03/15 20:51:16;;;;;;;16.77;8.57;;;11.80;91.20;;;;;;10008825;28;20042;-68
2022/03/15 20:56:08;;;;;;;11.50;6.43;;;11.80;91.40;;;;;;9993954;28;20041;-66
2022/03/15 21:01:03;;;;;;;10.15;6.03;;;11.60;91.50;;;;;;10011546;28;20140;-67
2022/03/15 21:05:54;;;;;;;10.98;6.18;;;11.70;91.70;;;;;;10008478;28;20077;-68
2022/03/15 21:10:46;;;;;;;10.43;6.25;;;11.70;91.70;;;;;;9988583;28;20115;-66
2022/03/15 21:15:37;;;;;;;11.93;5.75;;;11.70;91.90;;;;;;9990227;28;20046;-67
2022/03/15 21:20:28;;;;;;;13.93;6.35;;;11.60;91.60;;;;;;10003988;28;20026;-61
2022/03/15 21:25:22;;;;;;;9.25;5.63;;;11.60;91.70;;;;;;9990816;28;20041;-62
2022/03/15 21:30:13;;;;;;;10.65;6.28;;;11.50;92.00;;;;;;10001444;28;20029;-64
2022/03/15 21:35:04;;;;;;;10.52;6.50;;;11.40;92.10;;;;;;9986673;28;20034;-64
2022/03/15 21:39:57;;;;;;;12.02;6.25;;;11.30;92.20;;;;;;9999401;28;20037;-64
2022/03/15 21:45:00;;;;;;;10.35;6.65;;;11.30;92.10;;;;;;9988608;28;20046;-65
2022/03/15 21:49:57;;;;;;;10.88;6.95;;;11.30;92.20;;;;;;10018640;28;20105;-65
2022/03/15 21:54:50;;;;;;;8.57;5.95;;;11.30;92.60;;;;;;9985479;28;20065;-63
2022/03/15 21:59:42;;;;;;;11.70;5.60;;;11.20;92.20;;;;;;9983152;28;20022;-65
2022/03/15 22:04:32;;;;;;;10.45;6.78;;;11.10;92.60;;;;;;9978491;28;20121;-64
2022/03/15 22:09:23;;;;;;;8.70;6.53;;;11.10;92.60;;;;;;10005326;28;20025;-64
2022/03/15 22:14:14;;;;;;;10.38;7.00;;;11.10;92.60;;;;;;10007252;28;20097;-64
2022/03/15 22:19:05;;;;;;;11.70;6.53;;;11.10;92.80;;;;;;10004329;28;20035;-64
2022/03/15 22:23:58;;;;;;;15.77;6.45;;;11.10;92.90;;;;;;10017408;28;20049;-64
2022/03/15 22:28:48;;;;;;;9.07;5.93;;;11.00;93.00;;;;;;10006184;28;20022;-64
2022/03/15 23:25:16;;;;;;;13.52;8.10;;;10.00;95.80;;;;;;10004961;28;20573;-64
2022/03/15 23:30:14;;;;;;;17.08;9.00;;;9.90;95.70;;;;;;10016203;28;20030;-65
2022/03/15 23:35:06;;;;;;;12.38;7.88;;;9.90;95.70;;;;;;10003424;28;20040;-64
2022/03/15 23:39:57;;;;;;;16.58;9.07;;;9.90;95.90;;;;;;10016640;28;20033;-65
2022/03/15 23:44:49;;;;;;;18.42;9.20;;;9.80;96.20;;;;;;10003607;28;20042;-65
2022/03/15 23:49:39;;;;;;;17.00;10.55;;;9.80;96.20;;;;;;9991890;28;20531;-65
2022/03/15 23:54:31;;;;;;;21.95;11.98;;;9.80;95.90;;;;;;10003871;28;20034;-64
2022/03/15 23:59:22;;;;;;;24.60;13.15;;;9.70;96.20;;;;;;10003281;28;20105;-65
